Time;durP1;ratioP1;P1;durP2;ratioP2;P2;SDS_P1;SDS_P2;PMS_P1;PMS_P2;Temp;Humidity;BMP_temperature;BMP_pressure;BME280_temperature;BME280_humidity;BME280_pressure;Samples;Min_cycle;Max_cycle;Signal;HPM_P1;HPM_P2
2023/02/06 00:01:35;;;;;;;19.60;9.70;;;;;;;9.70;45.33;101516.19;108062;1258;72754;-63
2023/02/06 00:04:03;;;;;;;18.30;10.30;;;;;;;9.29;46.37;101517.13;108248;1254;60633;-65
2023/02/06 00:06:40;;;;;;;21.80;11.80;;;;;;;9.24;46.66;101514.20;107974;1259;59291;-62
2023/02/06 00:09:09;;;;;;;21.80;10.20;;;;;;;9.28;46.66;101507.86;108053;1258;75082;-63
2023/02/06 00:11:40;;;;;;;22.40;11.60;;;;;;;9.19;46.95;101508.82;108081;1259;70967;-64
2023/02/06 00:14:08;;;;;;;20.90;10.80;;;;;;;8.98;47.44;101511.45;108043;1254;72695;-64
2023/02/06 00:16:56;;;;;;;22.60;12.00;;;;;;;9.25;47.25;101508.58;108162;1254;62890;-61
2023/02/06 00:19:25;;;;;;;22.90;12.30;;;;;;;9.15;47.33;101511.12;108158;1255;61555;-63
2023/02/06 00:21:54;;;;;;;25.50;12.80;;;;;;;9.32;47.05;101506.77;108112;1254;74409;-63
2023/02/06 00:24:22;;;;;;;19.30;11.00;;;;;;;9.19;47.23;101507.05;108105;1258;70269;-63
2023/02/06 00:26:50;;;;;;;21.10;11.00;;;;;;;9.14;47.73;101513.95;108108;1254;73820;-63
2023/02/06 00:29:18;;;;;;;21.30;11.40;;;;;;;9.50;47.18;101513.25;108056;1257;62332;-64
2023/02/06 00:31:47;;;;;;;21.20;11.50;;;;;;;9.41;47.33;101514.56;108041;1259;61062;-63
2023/02/06 00:34:15;;;;;;;24.60;13.10;;;;;;;9.10;47.94;101515.73;107975;1256;72767;-63
2023/02/06 00:36:44;;;;;;;19.20;10.00;;;;;;;8.92;48.21;101514.48;108112;1257;69625;-66
2023/02/06 00:39:12;;;;;;;24.50;12.90;;;;;;;9.01;48.34;101513.52;108070;1257;72418;-63
2023/02/06 00:41:40;;;;;;;22.00;12.30;;;;;;;9.50;47.32;101512.20;108076;1260;60885;-62
2023/02/06 00:44:08;;;;;;;23.10;13.10;;;;;;;9.58;47.16;101511.76;108057;1257;59536;-62
2023/02/06 00:46:36;;;;;;;24.60;13.00;;;;;;;9.80;46.79;101509.92;108052;1260;75114;-62
2023/02/06 00:49:05;;;;;;;18.80;11.50;;;;;;;10.31;45.83;101509.10;108100;1259;70664;-62
2023/02/06 00:51:37;;;;;;;21.80;12.80;;;;;;;9.84;46.32;101505.81;108031;1259;72743;-62
2023/02/06 00:54:06;;;;;;;20.80;11.50;;;;;;;9.28;47.40;101510.84;108053;1257;61415;-63
2023/02/06 00:56:34;;;;;;;22.50;12.50;;;;;;;9.38;47.45;101507.40;108121;1257;60294;-61
2023/02/06 00:59:03;;;;;;;23.10;12.70;;;;;;;9.13;47.88;101506.77;108052;1258;74887;-63
2023/02/06 01:01:33;;;;;;;23.10;12.10;;;;;;;9.06;47.95;101507.01;108073;1256;69953;-62
2023/02/06 01:04:01;;;;;;;27.10;12.20;;;;;;;9.25;47.59;101510.16;108098;1254;73977;-62
2023/02/06 01:06:50;;;;;;;25.60;12.20;;;;;;;9.38;47.19;101510.20;108094;1257;62524;-64
2023/02/06 01:09:18;;;;;;;17.00;10.50;;;;;;;9.19;47.71;101510.58;108097;1254;61372;-62
2023/02/06 01:11:46;;;;;;;20.90;12.00;;;;;;;9.53;47.22;101508.65;108088;1257;74004;-63
2023/02/06 01:14:14;;;;;;;22.50;12.00;;;;;;;9.36;47.24;101510.23;108135;1257;71247;-63
2023/02/06 01:16:43;;;;;;;16.50;9.40;;;;;;;9.64;46.73;101511.52;108038;1258;73014;-60
2023/02/06 01:19:11;;;;;;;20.30;11.10;;;;;;;9.82;46.48;101507.80;108033;1254;61277;-61
2023/02/06 01:21:40;;;;;;;18.90;9.80;;;;;;;10.40;45.30;101506.69;108028;1254;60534;-63
2023/02/06 01:24:08;;;;;;;14.70;9.30;;;;;;;11.11;43.94;101503.08;108174;1256;74659;-62
2023/02/06 01:26:37;;;;;;;16.60;10.80;;;;;;;8.79;47.61;101516.16;108144;1256;70939;-61
2023/02/06 01:29:05;;;;;;;18.40;10.30;;;;;;;8.60;48.33;101514.85;108225;1254;73653;-63
2023/02/06 01:31:35;;;;;;;18.30;10.30;;;;;;;10.00;45.81;101509.15;108167;1254;62374;-62
2023/02/06 01:34:06;;;;;;;20.30;11.00;;;;;;;10.03;45.44;101505.61;108159;1252;61068;-61
2023/02/06 01:36:37;;;;;;;20.20;10.60;;;;;;;8.84;47.04;101513.58;108200;1253;75085;-62
2023/02/06 01:39:06;;;;;;;18.70;10.60;;;;;;;8.29;48.50;101512.42;108219;1256;71591;-62
2023/02/06 01:41:34;;;;;;;20.70;11.20;;;;;;;8.43;48.28;101512.01;108192;1254;73566;-63
2023/02/06 01:44:05;;;;;;;18.30;10.70;;;;;;;7.96;49.40;101511.89;108173;1256;61858;-61
2023/02/06 01:46:35;;;;;;;19.50;10.60;;;;;;;8.06;49.34;101514.98;108179;1254;61664;-63
2023/02/06 01:49:03;;;;;;;17.30;10.60;;;;;;;7.73;49.78;101516.68;108198;1254;72905;-62
2023/02/06 01:51:34;;;;;;;;;;;;;;;7.67;50.00;101515.13;108132;1254;70352;-63
2023/02/06 01:54:03;;;;;;;19.80;10.20;;;;;;;7.89;49.69;101516.64;108190;1253;73893;-62
2023/02/06 01:56:35;;;;;;;19.80;11.00;;;;;;;7.75;50.17;101517.91;108253;1254;61209;-64
2023/02/06 01:59:04;;;;;;;21.70;11.40;;;;;;;7.96;49.65;101520.11;108231;1252;61210;-62
2023/02/06 02:01:32;;;;;;;19.50;10.20;;;;;;;7.83;49.76;101519.27;108276;1254;75078;-62
2023/02/06 02:04:05;;;;;;;19.10;10.70;;;;;;;7.88;49.92;101522.92;108086;1253;71514;-62
2023/02/06 02:06:34;;;;;;;20.80;10.70;;;;;;;8.05;49.29;101528.64;108066;1253;72887;-64
2023/02/06 02:09:02;;;;;;;16.00;9.30;;;;;;;7.95;49.44;101530.25;108354;1254;61497;-63
2023/02/06 02:11:35;;;;;;;19.00;10.80;;;;;;;8.05;49.28;101533.70;108152;1253;60580;-63
2023/02/06 02:14:09;;;;;;;16.10;9.10;;;;;;;9.27;47.30;101535.36;108177;1253;75088;-62
2023/02/06 02:16:48;;;;;;;19.40;10.60;;;;;;;9.59;46.27;101536.98;108232;1254;71345;-61
2023/02/06 02:19:39;;;;;;;17.90;10.00;;;;;;;9.30;46.51;101546.75;108179;1257;71931;-62
2023/02/06 02:22:19;;;;;;;18.10;11.30;;;;;;;8.94;46.81;101546.00;108123;1253;61883;-61
2023/02/06 02:25:21;;;;;;;19.80;10.50;;;;;;;8.73;47.07;101543.87;108185;1252;61039;-63
2023/02/06 02:27:58;;;;;;;18.40;10.40;;;;;;;8.57;47.02;101548.17;108158;1254;74474;-60
2023/02/06 02:30:36;;;;;;;20.40;11.00;;;;;;;8.74;46.70;101553.84;108273;1254;71348;-62
2023/02/06 02:33:44;;;;;;;17.70;10.30;;;;;;;7.56;48.21;101548.88;108152;1253;72974;-63
2023/02/06 02:36:20;;;;;;;17.60;9.70;;;;;;;7.17;49.17;101551.90;109430;1253;61284;-62
2023/02/06 02:39:03;;;;;;;19.20;10.40;;;;;;;7.19;48.88;101554.88;109435;1254;59040;-62
2023/02/06 02:41:37;;;;;;;16.70;9.60;;;;;;;7.23;48.59;101551.21;109413;1254;75039;-63
2023/02/06 02:47:20;;;;;;;16.60;9.40;;;;;;;6.95;48.83;101556.09;104910;1293;600524;-61
2023/02/06 02:49:49;;;;;;;20.50;10.50;;;;;;;6.63;49.38;101560.59;107265;1267;61147;-62
2023/02/06 02:52:17;;;;;;;17.30;9.90;;;;;;;6.64;49.43;101561.98;107397;1267;61366;-63
2023/02/06 02:54:45;;;;;;;16.10;9.50;;;;;;;6.81;49.18;101559.91;107334;1267;73461;-64
2023/02/06 02:57:17;;;;;;;19.20;11.10;;;;;;;7.13;48.55;101557.16;107327;1264;70612;-63
2023/02/06 02:59:46;;;;;;;17.30;10.20;;;;;;;7.29;48.24;101553.31;107740;1258;124205;-66
2023/02/06 03:02:35;;;;;;;20.70;11.30;;;;;;;7.40;48.00;101555.39;108006;1254;61925;-64
2023/02/06 03:05:08;;;;;;;16.20;9.20;;;;;;;7.19;48.39;101558.02;108035;1254;60022;-68
2023/02/06 03:08:00;;;;;;;20.00;11.20;;;;;;;7.31;48.40;101558.70;107910;1254;72915;-64
2023/02/06 03:10:51;;;;;;;19.20;10.40;;;;;;;7.15;48.78;101560.48;108079;1254;70001;-63
2023/02/06 03:13:28;;;;;;;19.50;10.90;;;;;;;7.05;49.11;101562.74;108016;1254;73660;-63
2023/02/06 03:16:18;;;;;;;18.20;10.10;;;;;;;6.88;49.47;101565.69;107976;1254;62177;-60
2023/02/06 03:18:53;;;;;;;20.60;11.40;;;;;;;6.79;49.73;101570.39;108071;1255;61603;-64
2023/02/06 03:21:21;;;;;;;21.50;11.60;;;;;;;6.65;50.15;101569.84;107961;1254;74374;-62
2023/02/06 03:23:51;;;;;;;21.90;11.90;;;;;;;6.82;50.01;101569.18;107965;1254;71552;-62
2023/02/06 03:26:22;;;;;;;22.50;12.50;;;;;;;6.98;49.71;101566.73;108082;1254;73450;-61
2023/02/06 03:28:51;;;;;;;22.20;12.30;;;;;;;6.90;49.95;101570.58;108057;1254;62172;-62
2023/02/06 03:31:24;;;;;;;20.90;11.70;;;;;;;6.74;50.37;101573.52;108059;1254;60309;-61
2023/02/06 03:34:00;;;;;;;22.80;11.80;;;;;;;6.98;49.85;101569.19;108048;1254;72874;-60
2023/02/06 03:36:28;;;;;;;19.30;10.40;;;;;;;7.45;49.32;101572.67;108103;1259;71461;-62
2023/02/06 03:38:56;;;;;;;24.20;12.60;;;;;;;8.10;48.20;101575.33;108036;1254;74101;-63
2023/02/06 03:41:28;;;;;;;22.60;11.80;;;;;;;7.88;48.45;101577.86;107964;1254;62354;-62
2023/02/06 03:43:56;;;;;;;20.30;11.10;;;;;;;8.02;48.17;101577.27;107981;1257;61297;-62
2023/02/06 03:46:24;;;;;;;23.00;12.80;;;;;;;8.12;48.02;101577.94;107876;1257;72498;-64
2023/02/06 03:48:53;;;;;;;20.40;11.60;;;;;;;7.71;48.84;101582.41;108018;1257;70260;-62
2023/02/06 03:51:30;;;;;;;24.20;12.00;;;;;;;7.52;49.33;101581.05;107916;1257;73443;-64
2023/02/06 03:53:58;;;;;;;20.40;10.60;;;;;;;7.64;49.11;101581.91;107919;1262;61443;-64
2023/02/06 03:56:31;;;;;;;20.80;10.90;;;;;;;7.98;48.62;101587.60;107945;1256;61407;-65
2023/02/06 03:58:59;;;;;;;27.50;14.10;;;;;;;8.15;48.03;101582.83;107956;1257;73028;-62
2023/02/06 04:01:28;;;;;;;24.30;11.50;;;;;;;8.02;48.28;101583.91;108175;1254;71442;-63
2023/02/06 04:03:56;;;;;;;24.90;12.20;;;;;;;7.95;48.27;101585.17;108184;1253;73270;-63
2023/02/06 04:06:24;;;;;;;24.20;13.30;;;;;;;7.84;48.65;101585.54;108076;1254;61204;-63
2023/02/06 04:08:53;;;;;;;22.20;12.30;;;;;;;7.78;48.67;101586.08;108070;1254;61474;-64
2023/02/06 04:11:21;;;;;;;27.60;14.20;;;;;;;7.81;48.77;101587.12;108159;1253;72312;-62
2023/02/06 04:13:49;;;;;;;25.10;12.30;;;;;;;7.90;48.48;101588.50;108166;1254;71649;-67
2023/02/06 04:16:18;;;;;;;25.50;13.60;;;;;;;7.87;48.56;101590.08;108134;1258;73901;-63
2023/02/06 04:18:46;;;;;;;25.30;13.10;;;;;;;7.83;48.73;101592.54;108182;1254;60957;-62
2023/02/06 04:21:14;;;;;;;23.70;12.70;;;;;;;7.58;49.32;101596.60;108116;1254;61315;-60
2023/02/06 04:23:42;;;;;;;23.00;12.40;;;;;;;7.62;49.31;101597.48;108146;1253;74238;-60
2023/02/06 04:26:11;;;;;;;24.20;12.70;;;;;;;7.40;49.65;101596.09;108128;1254;70736;-63
2023/02/06 04:28:39;;;;;;;21.20;10.90;;;;;;;7.46;49.65;101599.41;108162;1255;72764;-62
2023/02/06 04:31:07;;;;;;;26.70;13.80;;;;;;;7.59;49.28;101600.63;108034;1257;62233;-61
2023/02/06 04:33:36;;;;;;;26.20;12.50;;;;;;;7.61;49.14;101600.61;108081;1257;61719;-62
2023/02/06 04:36:06;;;;;;;23.60;11.80;;;;;;;7.85;48.85;101604.60;108126;1259;72972;-63
2023/02/06 04:38:35;;;;;;;22.90;11.90;;;;;;;8.12;48.26;101611.36;108086;1255;70000;-61
2023/02/06 04:41:04;;;;;;;20.20;11.50;;;;;;;8.15;47.92;101612.21;108043;1254;74249;-63
2023/02/06 04:43:33;;;;;;;22.40;11.70;;;;;;;7.95;48.34;101612.27;108069;1254;60370;-65
2023/02/06 04:46:02;;;;;;;23.10;11.50;;;;;;;7.98;48.59;101613.31;108119;1258;61247;-65
2023/02/06 04:48:30;;;;;;;20.10;10.10;;;;;;;7.86;48.52;101611.58;108074;1258;73983;-61
2023/02/06 04:50:58;;;;;;;23.10;12.70;;;;;;;7.83;48.93;101607.39;108101;1258;70507;-62
2023/02/06 04:53:26;;;;;;;23.50;12.10;;;;;;;7.92;48.96;101610.36;108179;1258;73640;-62
2023/02/06 04:56:04;;;;;;;22.30;11.70;;;;;;;7.90;48.72;101611.59;108059;1254;62337;-65
2023/02/06 04:58:32;;;;;;;27.40;12.80;;;;;;;8.28;47.73;101615.15;108074;1259;61437;-64
2023/02/06 05:01:43;;;;;;;21.80;12.50;;;;;;;6.53;52.11;101620.41;104937;1291;600838;-65
2023/02/06 05:04:11;;;;;;;21.80;11.40;;;;;;;7.86;48.78;101616.48;107325;1266;61878;-62
2023/02/06 05:06:40;;;;;;;21.50;12.00;;;;;;;7.79;48.72;101617.71;107324;1266;61036;-61
2023/02/06 05:09:08;;;;;;;17.90;10.30;;;;;;;8.20;48.04;101617.63;107306;1264;72995;-64
2023/02/06 05:11:36;;;;;;;23.40;12.70;;;;;;;8.17;48.03;101617.45;107352;1266;71295;-62
2023/02/06 05:14:04;;;;;;;21.50;11.20;;;;;;;8.26;47.88;101616.02;107797;1258;73570;-62
2023/02/06 05:16:32;;;;;;;22.20;12.10;;;;;;;8.30;47.70;101618.64;107834;1256;197544;-64
2023/02/06 05:19:00;;;;;;;20.60;11.80;;;;;;;8.13;47.74;101619.57;107978;1255;59964;-64
2023/02/06 05:21:29;;;;;;;18.20;10.10;;;;;;;8.15;47.65;101618.16;108001;1256;71668;-63
2023/02/06 05:23:57;;;;;;;22.00;12.00;;;;;;;8.41;47.30;101622.64;107977;1255;69840;-63
2023/02/06 05:26:25;;;;;;;22.90;12.30;;;;;;;8.47;46.89;101620.16;108017;1255;73903;-63
2023/02/06 05:28:54;;;;;;;23.60;11.30;;;;;;;8.45;46.77;101621.40;107967;1257;61453;-63
2023/02/06 05:31:23;;;;;;;22.00;11.70;;;;;;;8.42;46.85;101627.00;108000;1256;61515;-65
2023/02/06 05:33:51;;;;;;;20.10;10.90;;;;;;;8.60;46.60;101628.69;107928;1256;72566;-63
2023/02/06 05:36:20;;;;;;;24.40;11.90;;;;;;;8.68;46.52;101628.30;107966;1256;71273;-61
2023/02/06 05:38:48;;;;;;;21.90;11.80;;;;;;;9.01;45.81;101630.73;107977;1256;74096;-65
2023/02/06 05:41:16;;;;;;;18.40;10.40;;;;;;;8.59;46.33;101632.17;107925;1256;61877;-62
2023/02/06 05:43:45;;;;;;;21.50;12.30;;;;;;;8.51;46.61;101629.42;107832;1256;60572;-64
2023/02/06 05:46:13;;;;;;;20.70;11.00;;;;;;;8.34;46.42;101627.55;107924;1256;73206;-64
2023/02/06 05:48:42;;;;;;;20.80;10.40;;;;;;;8.05;47.08;101625.55;107948;1256;71687;-62
2023/02/06 05:51:10;;;;;;;23.10;11.80;;;;;;;8.11;47.17;101629.89;107858;1256;73797;-63
2023/02/06 05:53:38;;;;;;;20.10;11.30;;;;;;;7.98;47.42;101629.21;107767;1256;61465;-61
2023/02/06 05:56:06;;;;;;;18.20;10.20;;;;;;;8.37;47.08;101632.79;107908;1256;61197;-62
2023/02/06 05:58:34;;;;;;;20.10;10.90;;;;;;;8.27;47.06;101636.30;107885;1256;73909;-63
2023/02/06 06:01:03;;;;;;;19.50;11.00;;;;;;;8.40;46.72;101635.42;107880;1256;71438;-62
2023/02/06 06:03:31;;;;;;;21.20;11.90;;;;;;;8.34;46.57;101635.95;107910;1256;72709;-63
2023/02/06 06:06:00;;;;;;;19.30;11.00;;;;;;;8.34;46.74;101637.89;107894;1256;62047;-64
2023/02/06 06:08:28;;;;;;;20.90;10.20;;;;;;;8.28;46.84;101637.36;107742;1256;60542;-63
2023/02/06 06:10:57;;;;;;;18.90;10.30;;;;;;;7.98;47.68;101637.10;107852;1257;74259;-62
2023/02/06 06:13:25;;;;;;;19.70;9.70;;;;;;;8.53;46.48;101638.84;108085;1256;71947;-64
2023/02/06 06:15:54;;;;;;;20.50;11.40;;;;;;;8.89;45.74;101635.54;107810;1256;74061;-66
2023/02/06 06:18:22;;;;;;;17.30;9.60;;;;;;;8.78;45.81;101631.88;107953;1256;62724;-62
2023/02/06 06:20:50;;;;;;;18.90;10.00;;;;;;;8.86;45.93;101629.24;107940;1256;59797;-63
2023/02/06 06:23:19;;;;;;;19.80;10.10;;;;;;;8.93;45.44;101629.38;107846;1256;74520;-64
2023/02/06 06:25:48;;;;;;;21.40;9.90;;;;;;;9.06;45.19;101630.69;107931;1256;71619;-64
2023/02/06 06:28:17;;;;;;;18.50;10.60;;;;;;;9.36;44.82;101629.73;107882;1256;73925;-64
2023/02/06 06:30:45;;;;;;;19.30;9.40;;;;;;;9.13;45.51;101628.72;107946;1256;61973;-62
2023/02/06 06:33:15;;;;;;;20.70;11.20;;;;;;;9.65;44.51;101631.80;107955;1256;61554;-62
2023/02/06 06:35:43;;;;;;;20.50;11.30;;;;;;;9.66;44.16;101630.56;107977;1256;73336;-64
2023/02/06 06:38:11;;;;;;;22.80;11.90;;;;;;;9.37;44.41;101636.77;107948;1256;71999;-64
2023/02/06 06:40:39;;;;;;;18.70;10.30;;;;;;;8.92;45.28;101636.38;107976;1257;73353;-65
2023/02/06 06:43:08;;;;;;;20.50;10.40;;;;;;;9.00;45.26;101631.77;107999;1256;61802;-63
2023/02/06 06:45:36;;;;;;;18.40;10.10;;;;;;;9.05;45.37;101636.66;108005;1256;61342;-64
2023/02/06 06:48:04;;;;;;;20.90;11.10;;;;;;;9.14;45.56;101643.26;107985;1256;74046;-63
2023/02/06 06:50:32;;;;;;;22.70;11.70;;;;;;;9.19;45.31;101645.48;108009;1256;71194;-63
2023/02/06 06:53:01;;;;;;;18.10;9.90;;;;;;;9.63;44.48;101642.33;108018;1256;72563;-64
2023/02/06 06:55:29;;;;;;;20.10;11.50;;;;;;;10.06;44.10;101638.40;108017;1256;62164;-65
2023/02/06 06:57:58;;;;;;;19.80;10.20;;;;;;;10.20;43.63;101637.91;107980;1256;61381;-63
2023/02/06 07:00:26;;;;;;;21.10;11.10;;;;;;;10.00;43.89;101640.05;107954;1256;73274;-63
2023/02/06 07:02:54;;;;;;;21.50;11.60;;;;;;;9.84;43.84;101644.95;107976;1256;69184;-63
2023/02/06 07:05:22;;;;;;;20.30;10.80;;;;;;;9.89;43.79;101647.35;107956;1256;73800;-64
2023/02/06 07:07:50;;;;;;;22.90;11.90;;;;;;;9.91;43.68;101654.89;108022;1256;60331;-64
2023/02/06 07:10:19;;;;;;;20.80;11.50;;;;;;;9.85;43.59;101660.02;107949;1257;61301;-63
2023/02/06 07:12:47;;;;;;;24.90;11.70;;;;;;;10.02;43.34;101655.11;108127;1255;72343;-64
2023/02/06 07:15:15;;;;;;;22.60;11.50;;;;;;;10.28;42.90;101653.27;108038;1256;71340;-64
2023/02/06 07:17:43;;;;;;;20.70;11.50;;;;;;;10.44;42.55;101654.70;107954;1256;73705;-62
2023/02/06 07:20:12;;;;;;;19.40;11.00;;;;;;;10.30;42.59;101655.16;107947;1257;62420;-62
2023/02/06 07:22:40;;;;;;;20.40;11.00;;;;;;;10.42;42.51;101659.27;108132;1254;62159;-62
2023/02/06 07:25:08;;;;;;;17.70;9.90;;;;;;;10.00;42.94;101660.05;108049;1254;73611;-64
2023/02/06 07:27:36;;;;;;;21.10;11.10;;;;;;;9.99;43.23;101666.73;108125;1256;71154;-64
2023/02/06 07:30:05;;;;;;;19.90;10.30;;;;;;;9.96;43.39;101669.75;108109;1254;73877;-64
2023/02/06 07:32:35;;;;;;;18.40;10.00;;;;;;;10.31;43.07;101670.61;108031;1255;61212;-63
2023/02/06 07:35:04;;;;;;;22.20;10.40;;;;;;;10.74;42.21;101669.05;108037;1256;60975;-63
2023/02/06 07:37:33;;;;;;;19.20;10.30;;;;;;;11.20;41.48;101670.00;108086;1254;74095;-64
2023/02/06 07:40:01;;;;;;;18.90;10.30;;;;;;;11.12;40.97;101675.02;108038;1255;70660;-62
2023/02/06 07:42:31;;;;;;;18.80;10.50;;;;;;;11.25;40.89;101673.06;108041;1256;73419;-64
2023/02/06 07:45:04;;;;;;;15.80;9.00;;;;;;;11.14;41.00;101665.86;108115;1255;61885;-62
2023/02/06 07:47:33;;;;;;;17.70;9.40;;;;;;;10.91;41.43;101670.06;108060;1255;60033;-63
2023/02/06 07:50:03;;;;;;;15.50;8.40;;;;;;;11.24;40.79;101671.17;108102;1254;73582;-64
2023/02/06 07:52:31;;;;;;;15.60;8.90;;;;;;;10.97;41.02;101672.42;108064;1254;71658;-60
2023/02/06 07:55:00;;;;;;;16.00;9.20;;;;;;;10.83;41.39;101675.27;108062;1258;73666;-62
2023/02/06 07:57:28;;;;;;;17.20;9.20;;;;;;;10.41;41.56;101678.08;108037;1256;62386;-61
2023/02/06 07:59:56;;;;;;;18.90;9.70;;;;;;;10.57;41.58;101671.75;108098;1254;60873;-62
2023/02/06 08:02:24;;;;;;;15.20;8.90;;;;;;;10.79;40.63;101675.15;108077;1254;73981;-62
2023/02/06 08:04:52;;;;;;;16.20;9.40;;;;;;;10.81;40.29;101672.48;107957;1254;71314;-62
2023/02/06 08:07:20;;;;;;;16.20;9.10;;;;;;;11.03;40.44;101671.64;108053;1254;73843;-63
2023/02/06 08:09:48;;;;;;;16.80;9.30;;;;;;;11.26;40.04;101675.17;108024;1256;62356;-63
2023/02/06 08:12:17;;;;;;;18.30;9.20;;;;;;;11.65;39.09;101670.50;107992;1254;61035;-63
2023/02/06 08:14:46;;;;;;;17.20;9.90;;;;;;;11.41;39.36;101677.23;108096;1254;74109;-64
2023/02/06 08:17:14;;;;;;;16.20;8.70;;;;;;;11.20;39.40;101677.73;108087;1257;71248;-62
2023/02/06 08:19:45;;;;;;;17.20;9.60;;;;;;;10.97;39.71;101683.16;108068;1254;73824;-61
2023/02/06 08:22:13;;;;;;;15.00;8.50;;;;;;;10.98;39.97;101688.60;108091;1256;62433;-63
2023/02/06 08:24:41;;;;;;;17.00;8.90;;;;;;;11.14;39.44;101690.30;108092;1256;61327;-65
2023/02/06 08:27:09;;;;;;;16.20;9.10;;;;;;;11.47;38.60;101685.95;108217;1253;74083;-63
2023/02/06 08:29:41;;;;;;;15.60;8.70;;;;;;;11.63;38.21;101691.83;108153;1252;71241;-63
2023/02/06 08:32:09;;;;;;;16.10;9.30;;;;;;;11.53;38.05;101686.89;108265;1252;73692;-64
2023/02/06 08:34:38;;;;;;;18.80;10.00;;;;;;;11.68;38.03;101687.36;108127;1253;60309;-64
2023/02/06 08:37:07;;;;;;;15.50;8.60;;;;;;;11.34;38.53;101686.30;108279;1253;61222;-63
2023/02/06 08:39:35;;;;;;;16.60;9.00;;;;;;;10.75;39.75;101690.66;108277;1253;73473;-62
2023/02/06 08:42:03;;;;;;;15.20;8.60;;;;;;;11.15;39.41;101694.33;108284;1252;69600;-64
2023/02/06 08:44:31;;;;;;;15.60;8.30;;;;;;;11.08;39.10;101697.77;108327;1253;73497;-64
2023/02/06 08:46:59;;;;;;;14.50;8.10;;;;;;;10.94;39.19;101699.38;108223;1252;62230;-64
2023/02/06 08:49:37;;;;;;;17.70;9.20;;;;;;;11.17;38.43;101694.48;108210;1252;60647;-63
2023/02/06 08:52:05;;;;;;;17.60;8.90;;;;;;;11.39;38.15;101696.96;108208;1253;73006;-65
2023/02/06 08:54:33;;;;;;;17.10;8.90;;;;;;;11.45;38.19;101695.10;108184;1253;71152;-64
2023/02/06 08:57:05;;;;;;;16.40;8.70;;;;;;;11.91;37.36;101695.44;108192;1253;72503;-64
2023/02/06 08:59:33;;;;;;;13.30;7.60;;;;;;;12.14;36.37;101693.44;108224;1254;60908;-64
2023/02/06 09:02:01;;;;;;;13.80;7.70;;;;;;;11.98;36.82;101694.09;108159;1254;60422;-64
2023/02/06 09:04:30;;;;;;;11.40;7.00;;;;;;;11.92;37.24;101691.52;108190;1253;72855;-65
2023/02/06 09:06:59;;;;;;;15.80;8.20;;;;;;;12.16;36.83;101697.27;108236;1253;71491;-64
2023/02/06 09:09:27;;;;;;;12.60;7.50;;;;;;;11.86;36.30;101692.69;108235;1253;73228;-63
2023/02/06 09:12:02;;;;;;;11.40;6.80;;;;;;;11.97;36.21;101692.33;108217;1252;59897;-64
2023/02/06 09:14:30;;;;;;;17.00;8.30;;;;;;;11.94;36.49;101692.39;108247;1253;60488;-64
2023/02/06 09:16:58;;;;;;;15.10;8.30;;;;;;;11.86;36.67;101688.28;108354;1254;74956;-63
2023/02/06 09:19:27;;;;;;;16.60;8.00;;;;;;;12.08;35.92;101691.61;108327;1253;71081;-62
2023/02/06 09:21:55;;;;;;;14.70;7.20;;;;;;;12.45;35.26;101683.34;108259;1252;72074;-62
2023/02/06 09:24:24;;;;;;;8.90;5.80;;;;;;;12.37;35.72;101686.14;108228;1253;62472;-65
2023/02/06 09:26:52;;;;;;;9.80;6.30;;;;;;;12.64;35.33;101682.05;108253;1253;61022;-63
2023/02/06 09:29:28;;;;;;;8.60;4.90;;;;;;;12.38;34.32;101687.50;108230;1253;72072;-64
2023/02/06 09:31:56;;;;;;;9.60;6.00;;;;;;;12.18;34.42;101684.39;108272;1252;71345;-65
2023/02/06 09:34:25;;;;;;;11.30;5.80;;;;;;;12.04;34.33;101689.75;108166;1253;72863;-63
2023/02/06 09:36:55;;;;;;;11.00;6.40;;;;;;;11.74;34.67;101691.31;108215;1253;60319;-64
2023/02/06 09:39:23;;;;;;;10.60;5.60;;;;;;;11.52;35.08;101690.61;108202;1253;60549;-64
2023/02/06 09:41:54;;;;;;;11.60;6.10;;;;;;;11.31;35.38;101687.93;108274;1252;75080;-64
2023/02/06 11:10:56;;;;;;;6.50;4.70;;;;;;;7.50;41.51;101663.44;105828;1285;613589;-63
2023/02/06 11:13:28;;;;;;;7.30;4.30;;;;;;;8.88;38.80;101663.22;107132;1264;135931;-64
2023/02/06 11:16:02;;;;;;;7.00;4.00;;;;;;;8.79;38.52;101665.20;107393;1269;61240;-63
2023/02/06 11:18:42;;;;;;;7.00;4.60;;;;;;;8.83;38.27;101664.64;107371;1264;73405;-64
2023/02/06 11:21:11;;;;;;;8.10;4.20;;;;;;;8.96;38.25;101667.02;107426;1264;71152;-63
2023/02/06 11:23:40;;;;;;;10.10;5.20;;;;;;;8.93;38.59;101671.25;108076;1259;73301;-65
2023/02/06 11:26:13;;;;;;;8.90;5.60;;;;;;;9.23;38.99;101673.67;108061;1257;60273;-66
2023/02/06 11:28:56;;;;;;;9.40;5.80;;;;;;;9.37;39.07;101673.94;108004;1257;61385;-65
2023/02/06 11:31:49;;;;;;;11.10;5.80;;;;;;;9.17;39.27;101673.02;108019;1257;73216;-66
2023/02/06 11:34:26;;;;;;;7.60;5.30;;;;;;;9.13;39.29;101674.29;107956;1258;71575;-65
2023/02/06 11:37:30;;;;;;;7.90;5.10;;;;;;;9.14;39.35;101675.66;107930;1257;72935;-61
2023/02/06 11:40:17;;;;;;;8.80;5.80;;;;;;;9.38;39.15;101665.52;107994;1257;59110;-62
2023/02/06 11:43:05;;;;;;;10.30;6.60;;;;;;;9.31;39.05;101671.52;108003;1257;61567;-62
2023/02/06 11:45:33;;;;;;;10.80;6.10;;;;;;;9.24;38.90;101671.59;107966;1257;72652;-66
2023/02/06 11:48:04;;;;;;;6.90;4.90;;;;;;;9.33;38.80;101676.77;107981;1257;71343;-64
2023/02/06 11:50:34;;;;;;;9.50;6.40;;;;;;;9.01;39.58;101669.45;108020;1257;71881;-64
2023/02/06 11:53:08;;;;;;;8.00;5.40;;;;;;;9.21;39.28;101676.86;107949;1256;60884;-63
2023/02/06 11:55:38;;;;;;;12.10;6.40;;;;;;;9.15;39.54;101674.79;107935;1256;61293;-64
2023/02/06 11:58:12;;;;;;;15.30;7.20;;;;;;;9.06;39.92;101675.90;107993;1257;71109;-65
2023/02/06 12:00:50;;;;;;;8.60;5.80;;;;;;;8.90;40.03;101664.60;107965;1257;70954;-64
2023/02/06 12:03:34;;;;;;;10.00;6.30;;;;;;;9.03;39.86;101665.58;107865;1258;73811;-64
2023/02/06 12:06:08;;;;;;;9.70;5.90;;;;;;;8.70;40.07;101663.13;107740;1258;62325;-65
2023/02/06 12:08:50;;;;;;;9.70;5.50;;;;;;;8.92;39.56;101662.14;107869;1257;59588;-64
2023/02/06 12:11:25;;;;;;;8.00;5.50;;;;;;;8.85;39.82;101664.98;107774;1257;73112;-63
2023/02/06 12:13:57;;;;;;;11.70;6.00;;;;;;;8.95;39.27;101658.61;107763;1263;71549;-64
2023/02/06 12:16:25;;;;;;;10.00;6.10;;;;;;;9.19;38.96;101664.42;107771;1258;71572;-64
2023/02/06 12:18:56;;;;;;;12.00;7.50;;;;;;;9.56;38.66;101657.83;107655;1258;60316;-65
2023/02/06 12:21:37;;;;;;;11.30;6.10;;;;;;;9.74;38.29;101654.34;107815;1257;61605;-64
2023/02/06 12:24:27;;;;;;;9.20;5.90;;;;;;;10.00;38.30;101651.80;107794;1263;74307;-63
2023/02/06 12:26:57;;;;;;;10.80;6.20;;;;;;;10.86;37.61;101651.14;107761;1257;70719;-62
2023/02/06 12:29:39;;;;;;;10.00;6.40;;;;;;;11.51;36.65;101652.79;107786;1258;71217;-63
2023/02/06 12:32:14;;;;;;;11.30;5.70;;;;;;;12.00;34.95;101649.84;107795;1257;60543;-62
2023/02/06 12:34:48;;;;;;;9.10;6.00;;;;;;;12.52;34.81;101654.66;107791;1258;60554;-64
2023/02/06 12:37:38;;;;;;;8.90;5.30;;;;;;;13.22;33.38;101650.45;107839;1257;74030;-65
2023/02/06 12:40:25;;;;;;;9.00;5.90;;;;;;;13.64;32.41;101651.75;107758;1258;70977;-63
2023/02/06 12:43:08;;;;;;;8.50;5.10;;;;;;;13.89;32.04;101647.41;107818;1262;73383;-63
2023/02/06 12:45:45;;;;;;;9.10;5.10;;;;;;;14.25;30.68;101643.77;107782;1257;59574;-64
2023/02/06 12:48:28;;;;;;;7.70;5.60;;;;;;;14.13;30.22;101644.96;107745;1257;61578;-64
2023/02/06 12:51:11;;;;;;;9.40;5.30;;;;;;;13.13;30.58;101646.26;107774;1257;73078;-64
2023/02/06 12:53:47;;;;;;;7.90;5.10;;;;;;;12.37;31.52;101648.44;107730;1257;71601;-65
2023/02/06 12:56:18;;;;;;;7.70;5.30;;;;;;;12.33;31.95;101645.36;107747;1257;73376;-62
2023/02/06 12:58:50;;;;;;;10.50;5.90;;;;;;;12.38;31.74;101640.68;107774;1257;59468;-62
2023/02/06 13:01:50;;;;;;;8.60;5.10;;;;;;;12.86;31.44;101640.18;107866;1257;61190;-64